Terminal Aerodrome Forecast
Issued by NWS Charleston, WV

Current Version | Previous Version | Text Only | Print | Product List | Glossary Off
Versions: 1 2 3 4 5 6 7 8 9 10 11 12 13 14 15 16 17 18 19 20 21 22 23 24

000
FTUS41 KRLX 160500
TAFBKW
TAF
KBKW 160525Z 1606/1706 00000KT P6SM BKN250
     FM160800 00000KT 6SM BR BKN040
     FM161100 00000KT 5SM BR OVC015
     FM161400 VRB03KT P6SM BKN015
     FM161700 31005KT P6SM BKN025
     FM161800 31005KT P6SM BKN035
     FM162300 34004KT P6SM SCT030=

USA.gov is the U.S. government's official web portal to all federal, state and local government web resources and services.